Time;durP1;ratioP1;P1;durP2;ratioP2;P2;SDS_P1;SDS_P2;PMS_P1;PMS_P2;Temp;Humidity;BMP_temperature;BMP_pressure;BME280_temperature;BME280_humidity;BME280_pressure;Samples;Min_cycle;Max_cycle;Signal;HPM_P1;HPM_P2
2021/10/31 00:00:10;;;;;;;28.33;16.80;;;12.40;99.90;;;;;;5117232;28;20114;-69
2021/10/31 00:02:35;;;;;;;35.78;17.90;;;12.50;99.90;;;;;;5117407;27;20539;-69
2021/10/31 00:05:01;;;;;;;31.00;17.13;;;12.40;99.90;;;;;;5116142;28;20032;-69
2021/10/31 00:07:26;;;;;;;28.40;18.63;;;12.40;99.90;;;;;;5117076;28;20534;-69
2021/10/31 00:09:52;;;;;;;31.42;18.42;;;12.40;99.90;;;;;;5115866;28;20047;-69
2021/10/31 00:12:17;;;;;;;31.08;18.02;;;12.30;99.90;;;;;;5115807;28;20391;-69
2021/10/31 00:14:43;;;;;;;36.83;18.98;;;12.20;99.90;;;;;;5117180;28;20035;-69
2021/10/31 00:17:09;;;;;;;30.40;18.88;;;12.10;99.90;;;;;;5116866;28;20070;-69
2021/10/31 00:19:34;;;;;;;34.83;18.63;;;12.10;99.90;;;;;;5116848;28;20395;-68
2021/10/31 00:22:00;;;;;;;39.35;20.63;;;12.00;99.90;;;;;;5116922;28;20036;-69
2021/10/31 00:24:26;;;;;;;36.33;19.98;;;12.00;99.90;;;;;;5115618;28;20036;-69
2021/10/31 00:26:51;;;;;;;41.67;19.95;;;12.00;99.90;;;;;;5116695;28;20459;-69
2021/10/31 00:29:17;;;;;;;31.90;20.27;;;11.90;99.90;;;;;;5116541;28;20084;-69
2021/10/31 00:31:43;;;;;;;39.35;20.25;;;12.00;99.90;;;;;;5117040;28;20071;-69
2021/10/31 00:34:08;;;;;;;37.60;20.58;;;11.90;99.90;;;;;;5115603;28;20051;-69
2021/10/31 00:36:35;;;;;;;34.17;20.40;;;11.90;99.90;;;;;;5115855;28;20426;-69
2021/10/31 00:39:00;;;;;;;32.47;20.67;;;11.80;99.90;;;;;;5116550;28;20050;-69
2021/10/31 00:41:26;;;;;;;37.83;21.17;;;11.70;99.90;;;;;;5116522;28;20039;-69
2021/10/31 00:43:52;;;;;;;33.00;20.60;;;11.70;99.90;;;;;;5116643;28;20095;-69
2021/10/31 00:46:18;;;;;;;33.33;20.73;;;11.70;99.90;;;;;;5116585;28;20067;-69
2021/10/31 00:48:44;;;;;;;37.50;21.27;;;11.70;99.90;;;;;;5116378;28;20040;-69
2021/10/31 00:51:10;;;;;;;35.75;20.83;;;11.60;99.90;;;;;;5116688;28;20039;-69
2021/10/31 00:53:39;;;;;;;36.03;21.27;;;11.60;99.90;;;;;;5115195;28;20095;-69
2021/10/31 00:56:05;;;;;;;33.20;21.23;;;11.60;99.90;;;;;;5116131;28;20042;-69
2021/10/31 00:58:30;;;;;;;35.15;21.95;;;11.60;99.90;;;;;;5115115;28;20043;-69
2021/10/31 01:00:56;;;;;;;35.13;21.98;;;11.50;99.90;;;;;;5116174;28;20517;-69
2021/10/31 01:03:21;;;;;;;35.67;21.48;;;11.50;99.90;;;;;;5116169;28;20144;-69
2021/10/31 01:05:53;;;;;;;36.88;22.77;;;11.50;99.90;;;;;;5116053;28;20114;-69
2021/10/31 01:08:50;;;;;;;40.58;24.88;;;11.50;99.90;;;;;;5114864;28;20036;-69
2021/10/31 01:11:25;;;;;;;43.13;24.20;;;11.40;99.90;;;;;;5116182;28;20093;-69
2021/10/31 01:13:59;;;;;;;42.58;26.05;;;11.50;99.90;;;;;;5116179;28;20028;-69
2021/10/31 01:16:37;;;;;;;39.17;23.17;;;11.50;99.90;;;;;;5116731;28;20035;-69
2021/10/31 01:19:25;;;;;;;45.58;27.52;;;11.50;99.90;;;;;;5115349;28;20040;-69
2021/10/31 01:22:25;;;;;;;44.65;25.50;;;11.50;99.90;;;;;;5116165;28;20035;-69
2021/10/31 01:25:31;;;;;;;47.03;27.73;;;11.50;99.90;;;;;;5114400;28;20495;-69
2021/10/31 01:28:34;;;;;;;47.53;27.20;;;11.50;99.90;;;;;;5116322;28;20043;-69
2021/10/31 01:31:17;;;;;;;45.97;26.77;;;11.50;99.90;;;;;;5115731;28;20043;-69
2021/10/31 01:33:59;;;;;;;;;;;11.50;99.90;;;;;;5114647;28;20040;-69
2021/10/31 01:36:34;;;;;;;48.40;27.45;;;11.40;99.90;;;;;;5115405;28;20303;-69
2021/10/31 01:39:32;;;;;;;49.67;28.38;;;11.40;99.90;;;;;;5114198;28;20046;-69
2021/10/31 01:42:16;;;;;;;48.72;28.30;;;11.40;99.90;;;;;;5109014;28;20108;-69
2021/10/31 01:44:47;;;;;;;51.28;29.15;;;11.50;99.90;;;;;;5114800;28;20126;-69
2021/10/31 01:47:31;;;;;;;52.67;30.23;;;11.50;99.90;;;;;;5115891;28;20040;-69
2021/10/31 01:50:10;;;;;;;54.53;30.92;;;11.50;99.90;;;;;;5115184;28;20391;-69
2021/10/31 01:52:41;;;;;;;61.20;32.08;;;11.50;99.90;;;;;;5115224;28;20051;-69
2021/10/31 01:55:12;;;;;;;47.95;29.27;;;11.50;99.90;;;;;;5115065;28;20039;-69
2021/10/31 01:57:43;;;;;;;62.40;33.17;;;11.40;99.90;;;;;;5115662;28;20096;-69
2021/10/31 02:00:13;;;;;;;53.67;31.30;;;11.40;99.90;;;;;;5114569;28;20046;-69
2021/10/31 02:02:42;;;;;;;59.28;32.50;;;11.40;99.90;;;;;;5114902;28;20075;-69
2021/10/31 02:05:15;;;;;;;60.38;32.90;;;11.40;99.90;;;;;;5114084;28;20437;-69
2021/10/31 02:07:43;;;;;;;;;;;11.30;99.90;;;;;;5115753;28;20044;-69
2021/10/31 02:10:09;;;;;;;60.83;32.00;;;11.30;99.90;;;;;;5114463;28;20010;-69
2021/10/31 02:12:37;;;;;;;52.67;31.90;;;11.20;99.90;;;;;;5114665;28;20039;-69
2021/10/31 02:15:04;;;;;;;50.58;29.58;;;11.20;99.90;;;;;;5113418;28;20093;-69
2021/10/31 02:17:31;;;;;;;56.97;32.22;;;11.20;99.90;;;;;;5114689;28;20118;-69
2021/10/31 02:19:58;;;;;;;54.70;31.73;;;11.20;99.90;;;;;;5114499;28;20048;-69
2021/10/31 02:22:29;;;;;;;54.22;31.70;;;11.10;99.90;;;;;;5113157;28;20046;-69
2021/10/31 02:24:55;;;;;;;48.65;30.38;;;11.10;99.90;;;;;;5114166;28;20097;-69
2021/10/31 02:27:24;;;;;;;47.13;29.23;;;11.10;99.90;;;;;;5114656;28;20051;-69
2021/10/31 02:29:57;;;;;;;46.47;29.10;;;11.10;99.90;;;;;;5114143;28;20400;-69
2021/10/31 02:32:26;;;;;;;49.00;30.20;;;11.00;99.90;;;;;;5114482;28;20066;-69
2021/10/31 02:34:53;;;;;;;39.10;27.05;;;11.00;99.90;;;;;;5114553;28;20031;-69
2021/10/31 02:37:19;;;;;;;45.97;28.08;;;11.00;99.90;;;;;;5114857;28;20066;-69
2021/10/31 02:39:45;;;;;;;42.55;27.27;;;10.90;99.90;;;;;;5112721;28;20090;-69
2021/10/31 02:42:11;;;;;;;38.10;27.13;;;11.00;99.90;;;;;;5114285;28;20036;-69
2021/10/31 02:44:37;;;;;;;41.83;28.02;;;11.00;99.90;;;;;;5114620;28;20368;-69
2021/10/31 02:47:07;;;;;;;44.90;26.73;;;11.00;99.90;;;;;;5114627;28;20031;-69
2021/10/31 02:49:33;;;;;;;40.05;25.83;;;10.90;99.90;;;;;;5114056;28;20412;-69
2021/10/31 02:52:26;;;;;;;42.28;26.42;;;10.90;99.90;;;;;;5114110;28;20035;-69
2021/10/31 02:55:18;;;;;;;37.42;25.30;;;10.90;99.90;;;;;;5113955;28;20164;-69
2021/10/31 02:57:53;;;;;;;39.40;25.92;;;10.90;99.90;;;;;;5114517;28;20050;-69
2021/10/31 03:00:20;;;;;;;33.15;23.00;;;10.90;99.90;;;;;;5113627;27;20039;-69
2021/10/31 03:02:46;;;;;;;34.55;23.60;;;10.80;99.90;;;;;;5113938;28;20040;-69
2021/10/31 03:05:12;;;;;;;35.90;24.50;;;10.80;99.90;;;;;;5112016;28;20059;-69
2021/10/31 03:07:38;;;;;;;35.83;24.27;;;10.70;99.90;;;;;;5113676;28;20048;-69
2021/10/31 03:10:05;;;;;;;37.55;24.35;;;10.70;99.90;;;;;;5113489;28;20035;-69
2021/10/31 03:12:31;;;;;;;36.45;23.90;;;10.70;99.90;;;;;;5113673;28;20061;-69
2021/10/31 03:14:57;;;;;;;31.30;22.67;;;10.60;99.90;;;;;;5113936;28;20072;-69
2021/10/31 03:17:23;;;;;;;34.28;23.08;;;10.70;99.90;;;;;;5113293;28;20089;-69
2021/10/31 03:19:49;;;;;;;32.58;22.85;;;10.60;99.90;;;;;;5113513;28;20040;-69
2021/10/31 03:22:15;;;;;;;37.63;24.15;;;10.60;99.90;;;;;;5113751;28;20036;-69
2021/10/31 03:24:41;;;;;;;41.75;26.13;;;10.60;99.90;;;;;;5110126;28;20097;-69
2021/10/31 03:27:07;;;;;;;34.63;22.98;;;10.60;99.90;;;;;;5114140;28;20039;-69
2021/10/31 03:29:33;;;;;;;34.95;22.17;;;10.60;99.90;;;;;;5113189;28;20067;-69
2021/10/31 03:31:59;;;;;;;38.35;23.45;;;10.50;99.90;;;;;;5113969;28;20040;-69
2021/10/31 03:34:25;;;;;;;39.63;23.10;;;10.60;99.90;;;;;;5113656;28;20498;-69
2021/10/31 03:36:51;;;;;;;32.38;21.35;;;10.60;99.90;;;;;;5113919;28;20035;-69
2021/10/31 03:39:17;;;;;;;34.10;22.38;;;10.50;99.90;;;;;;5113163;28;20040;-69
2021/10/31 03:41:45;;;;;;;32.97;21.05;;;10.50;99.90;;;;;;5112461;28;20055;-69
2021/10/31 03:44:16;;;;;;;35.08;21.98;;;10.50;99.90;;;;;;5113413;28;20047;-69
2021/10/31 03:46:42;;;;;;;34.45;22.83;;;10.50;99.90;;;;;;5113829;28;20046;-69
2021/10/31 03:49:09;;;;;;;33.13;20.38;;;10.50;99.90;;;;;;5113220;28;20122;-69
2021/10/31 03:51:35;;;;;;;31.13;20.95;;;10.50;99.90;;;;;;5113423;28;20131;-69
2021/10/31 03:54:00;;;;;;;29.90;20.98;;;10.50;99.90;;;;;;5113821;28;20044;-69
2021/10/31 03:56:26;;;;;;;34.05;22.23;;;10.40;99.90;;;;;;5113284;28;20111;-69
2021/10/31 03:58:51;;;;;;;27.08;20.25;;;10.40;99.90;;;;;;5112886;28;20043;-69
2021/10/31 04:01:17;;;;;;;31.00;20.92;;;10.40;99.90;;;;;;5113527;28;20046;-69
2021/10/31 04:03:43;;;;;;;35.75;21.00;;;10.30;99.90;;;;;;5112247;28;20040;-69
2021/10/31 04:06:12;;;;;;;29.65;21.15;;;10.30;99.90;;;;;;5113399;28;20123;-69
2021/10/31 04:08:37;;;;;;;30.17;21.27;;;10.30;99.90;;;;;;5111450;28;20393;-69
2021/10/31 04:11:03;;;;;;;33.47;20.42;;;10.20;99.90;;;;;;5113241;28;20039;-69
2021/10/31 04:13:28;;;;;;;36.22;20.70;;;10.20;99.90;;;;;;5111394;28;20426;-69
2021/10/31 04:15:54;;;;;;;31.17;21.30;;;10.10;99.90;;;;;;5113094;28;20047;-69
2021/10/31 04:18:20;;;;;;;28.88;19.40;;;10.10;99.90;;;;;;5113088;28;20064;-69
2021/10/31 04:20:46;;;;;;;31.33;20.98;;;10.10;99.90;;;;;;5113020;28;20127;-69
2021/10/31 04:23:12;;;;;;;30.65;21.65;;;10.10;99.90;;;;;;5113149;28;20079;-69
2021/10/31 04:25:37;;;;;;;27.40;19.95;;;10.00;99.90;;;;;;5113137;28;20039;-69
2021/10/31 04:28:03;;;;;;;34.53;22.00;;;10.10;99.90;;;;;;5114236;28;20052;-69
2021/10/31 04:30:29;;;;;;;30.30;21.60;;;10.10;99.90;;;;;;5115412;28;20043;-69
2021/10/31 04:32:54;;;;;;;33.45;22.75;;;10.10;99.90;;;;;;5116877;28;20043;-69
2021/10/31 04:35:20;;;;;;;40.88;27.13;;;10.10;99.90;;;;;;5116634;28;20062;-69
2021/10/31 04:37:46;;;;;;;41.22;25.35;;;10.20;99.90;;;;;;5116778;28;20044;-69
2021/10/31 04:40:14;;;;;;;46.38;29.73;;;10.20;99.90;;;;;;5116904;28;20036;-69
2021/10/31 04:42:40;;;;;;;46.95;28.00;;;10.20;99.90;;;;;;5116605;28;20555;-69
2021/10/31 04:45:06;;;;;;;46.13;27.02;;;10.30;99.90;;;;;;5116615;28;20078;-69
2021/10/31 04:47:32;;;;;;;51.88;30.50;;;10.30;99.90;;;;;;5116251;28;20524;-69
2021/10/31 04:49:58;;;;;;;53.80;30.85;;;10.30;99.90;;;;;;5116089;28;20089;-69
2021/10/31 04:52:24;;;;;;;51.50;31.02;;;10.30;99.90;;;;;;5116327;28;20054;-69
2021/10/31 04:54:49;;;;;;;49.45;30.42;;;10.40;99.90;;;;;;5116229;28;20480;-69
2021/10/31 04:57:15;;;;;;;45.50;30.40;;;10.40;99.90;;;;;;5116267;28;20035;-69
2021/10/31 04:59:41;;;;;;;52.75;31.27;;;10.40;99.90;;;;;;5114787;28;20047;-69
2021/10/31 05:02:06;;;;;;;47.40;28.38;;;10.40;99.90;;;;;;5116323;28;20036;-69
2021/10/31 05:04:32;;;;;;;54.22;32.92;;;10.40;99.90;;;;;;5116123;28;20039;-69
2021/10/31 05:06:58;;;;;;;56.13;32.95;;;10.40;99.90;;;;;;5115302;28;20039;-69
2021/10/31 05:09:23;;;;;;;54.47;32.83;;;10.40;99.90;;;;;;5115483;28;20039;-68
2021/10/31 05:11:49;;;;;;;51.72;31.42;;;10.40;99.90;;;;;;5116145;28;20501;-69
2021/10/31 05:14:14;;;;;;;48.97;30.00;;;10.50;99.90;;;;;;5114585;28;20040;-69
2021/10/31 05:16:40;;;;;;;59.78;34.00;;;10.50;99.90;;;;;;5114492;28;20039;-69
2021/10/31 05:19:08;;;;;;;55.72;32.92;;;10.50;99.90;;;;;;5115208;28;20445;-69
2021/10/31 05:21:35;;;;;;;54.70;30.25;;;10.50;99.90;;;;;;5116077;28;20048;-69
2021/10/31 05:24:00;;;;;;;52.60;31.33;;;10.50;99.90;;;;;;5114419;28;20127;-69
2021/10/31 05:26:27;;;;;;;54.63;30.92;;;10.50;99.90;;;;;;5115555;28;20063;-69
2021/10/31 05:28:54;;;;;;;51.75;31.30;;;10.50;99.90;;;;;;5115316;28;20122;-69
2021/10/31 05:31:21;;;;;;;57.50;32.05;;;10.50;99.90;;;;;;5115872;28;20040;-69
2021/10/31 05:33:48;;;;;;;56.05;32.05;;;10.50;99.90;;;;;;5115423;28;20484;-69
2021/10/31 05:36:13;;;;;;;45.63;29.27;;;10.50;99.90;;;;;;5115767;28;20035;-69
2021/10/31 05:38:39;;;;;;;52.63;31.08;;;10.60;99.90;;;;;;5113733;28;20119;-69
2021/10/31 05:41:05;;;;;;;51.15;29.95;;;10.60;99.90;;;;;;5115511;28;20047;-69
2021/10/31 05:43:31;;;;;;;56.13;31.85;;;10.60;99.90;;;;;;5115573;28;20039;-69
2021/10/31 05:45:57;;;;;;;46.92;27.77;;;10.60;99.90;;;;;;5115270;28;20047;-69
2021/10/31 05:48:24;;;;;;;53.70;30.40;;;10.60;99.90;;;;;;5115650;28;20032;-69
2021/10/31 05:50:52;;;;;;;49.25;29.35;;;10.60;99.90;;;;;;5114966;28;20035;-69
2021/10/31 05:53:17;;;;;;;47.95;28.23;;;10.60;99.90;;;;;;5115085;28;20047;-69
2021/10/31 05:55:43;;;;;;;52.70;29.15;;;10.60;99.90;;;;;;5115211;28;20046;-69
2021/10/31 05:58:09;;;;;;;46.85;28.13;;;10.60;99.90;;;;;;5115109;28;20429;-69
2021/10/31 06:00:35;;;;;;;51.83;28.45;;;10.60;99.90;;;;;;5113545;28;20071;-69
2021/10/31 06:03:00;;;;;;;52.03;28.38;;;10.60;99.90;;;;;;5115205;28;20096;-69
2021/10/31 06:05:27;;;;;;;50.22;28.17;;;10.60;99.90;;;;;;5114036;28;20044;-69
2021/10/31 06:07:52;;;;;;;46.17;27.63;;;10.60;99.90;;;;;;5115224;28;20468;-69
2021/10/31 06:10:18;;;;;;;44.08;27.63;;;10.60;99.90;;;;;;5114773;28;20065;-69
2021/10/31 06:12:46;;;;;;;47.17;28.70;;;10.60;99.90;;;;;;5115066;28;20039;-69
2021/10/31 06:15:23;;;;;;;48.22;27.25;;;10.60;99.90;;;;;;5114763;28;20039;-69
2021/10/31 06:17:48;;;;;;;53.88;26.98;;;10.60;99.90;;;;;;5113717;28;20040;-69
2021/10/31 06:20:15;;;;;;;49.22;28.27;;;10.70;99.90;;;;;;5114212;28;20036;-69
2021/10/31 06:22:41;;;;;;;43.65;25.55;;;10.60;99.90;;;;;;5113306;28;20488;-69
2021/10/31 06:25:09;;;;;;;47.67;26.75;;;10.60;99.90;;;;;;5114717;28;20066;-69
2021/10/31 06:27:35;;;;;;;47.38;27.17;;;10.60;99.90;;;;;;5113392;28;20047;-69
2021/10/31 06:30:01;;;;;;;48.83;28.83;;;10.60;99.90;;;;;;5114388;28;20042;-69
2021/10/31 06:32:27;;;;;;;46.10;26.63;;;10.60;99.90;;;;;;5114277;28;20039;-69
2021/10/31 06:34:52;;;;;;;45.60;27.95;;;10.60;99.90;;;;;;5114536;28;20039;-68
2021/10/31 06:37:18;;;;;;;50.75;27.10;;;10.60;99.90;;;;;;5114570;28;20089;-69
2021/10/31 06:39:44;;;;;;;46.15;27.70;;;10.60;99.90;;;;;;5114252;28;20075;-69
2021/10/31 06:42:10;;;;;;;40.47;25.58;;;10.70;99.90;;;;;;5113153;28;20035;-69
2021/10/31 06:44:35;;;;;;;48.00;26.90;;;10.70;99.90;;;;;;5114277;28;20484;-69
2021/10/31 06:47:01;;;;;;;43.75;27.23;;;10.70;99.90;;;;;;5114069;28;20040;-69
2021/10/31 06:49:28;;;;;;;45.75;26.63;;;10.60;99.90;;;;;;5112741;28;20040;-69
2021/10/31 06:51:54;;;;;;;46.17;27.95;;;10.70;99.90;;;;;;5112352;28;20445;-69
2021/10/31 06:54:20;;;;;;;42.03;26.17;;;10.70;99.90;;;;;;5114362;28;20044;-69
2021/10/31 06:56:45;;;;;;;48.35;25.58;;;10.60;99.90;;;;;;5114482;28;20031;-69
2021/10/31 06:59:11;;;;;;;48.33;25.42;;;10.60;99.90;;;;;;5113657;28;20122;-68
2021/10/31 07:01:36;;;;;;;39.90;25.00;;;10.70;99.90;;;;;;5112561;28;20502;-69
2021/10/31 07:04:03;;;;;;;45.22;25.52;;;10.70;99.90;;;;;;5114486;28;20035;-68
2021/10/31 07:06:29;;;;;;;42.67;24.38;;;10.70;99.90;;;;;;5114014;28;20058;-69
2021/10/31 07:08:54;;;;;;;43.35;24.95;;;10.70;99.90;;;;;;5113626;28;20487;-69
2021/10/31 07:11:20;;;;;;;40.53;23.13;;;10.70;99.90;;;;;;5113993;28;20126;-69
2021/10/31 07:13:46;;;;;;;42.97;24.73;;;10.70;99.90;;;;;;5113894;28;20059;-68
2021/10/31 07:16:11;;;;;;;44.22;25.35;;;10.70;99.90;;;;;;5113823;28;20088;-68
2021/10/31 07:18:37;;;;;;;48.58;26.55;;;10.70;99.90;;;;;;5112072;28;20039;-68
2021/10/31 07:21:04;;;;;;;44.25;23.98;;;10.70;99.90;;;;;;5113721;28;20134;-69
2021/10/31 07:23:30;;;;;;;32.03;20.63;;;10.70;99.90;;;;;;5112361;28;20071;-69
2021/10/31 07:25:55;;;;;;;42.25;22.80;;;10.70;99.90;;;;;;5112535;28;20071;-69
2021/10/31 07:28:22;;;;;;;39.47;21.27;;;10.70;99.90;;;;;;5114002;28;20092;-68
2021/10/31 07:30:49;;;;;;;38.92;20.95;;;10.70;99.90;;;;;;5113431;28;20047;-69
2021/10/31 07:33:15;;;;;;;39.08;21.55;;;10.70;99.90;;;;;;5113476;28;20476;-69
2021/10/31 07:35:40;;;;;;;37.85;22.42;;;10.70;99.90;;;;;;5112377;28;20070;-69
2021/10/31 07:38:06;;;;;;;46.60;23.50;;;10.80;99.90;;;;;;5112541;28;20096;-68
2021/10/31 07:40:32;;;;;;;39.03;22.77;;;10.80;99.90;;;;;;5113622;28;20043;-69
2021/10/31 07:42:59;;;;;;;36.75;21.67;;;10.80;99.90;;;;;;5113454;28;20376;-69
2021/10/31 07:45:25;;;;;;;35.67;22.83;;;10.80;99.90;;;;;;5113832;28;20044;-69
2021/10/31 07:47:51;;;;;;;38.08;23.00;;;10.80;99.90;;;;;;5113799;28;20039;-69
2021/10/31 07:50:16;;;;;;;40.05;22.95;;;10.80;99.90;;;;;;5111928;28;20043;-69
2021/10/31 07:52:43;;;;;;;44.10;24.58;;;10.90;99.90;;;;;;5113562;28;20035;-69
2021/10/31 07:55:18;;;;;;;39.28;23.20;;;10.90;99.90;;;;;;5113253;28;20128;-69
2021/10/31 07:57:46;;;;;;;36.15;22.20;;;10.90;99.90;;;;;;5113604;28;20427;-69
2021/10/31 08:00:13;;;;;;;38.17;22.80;;;10.90;99.90;;;;;;5112971;28;20119;-69
2021/10/31 08:02:39;;;;;;;35.58;21.58;;;10.90;99.90;;;;;;5112945;28;20126;-69
2021/10/31 08:05:05;;;;;;;37.03;22.33;;;10.90;99.90;;;;;;5117414;28;20170;-69
2021/10/31 08:07:31;;;;;;;32.10;22.10;;;10.90;99.90;;;;;;5117176;28;20081;-69
2021/10/31 08:09:58;;;;;;;31.90;22.17;;;11.00;99.90;;;;;;5117257;28;20036;-69
2021/10/31 08:12:28;;;;;;;36.17;21.38;;;11.00;99.90;;;;;;5117259;28;20042;-69
2021/10/31 08:14:54;;;;;;;32.80;20.90;;;11.00;99.90;;;;;;5117027;28;20115;-69
2021/10/31 08:17:19;;;;;;;30.40;19.85;;;11.00;99.90;;;;;;5116998;28;20127;-69
2021/10/31 08:19:45;;;;;;;32.20;20.30;;;11.10;99.90;;;;;;5116937;28;20369;-69
2021/10/31 08:22:11;;;;;;;31.92;21.42;;;11.10;99.90;;;;;;5116916;28;20044;-69
2021/10/31 08:24:37;;;;;;;28.70;19.92;;;11.10;99.90;;;;;;5117158;28;20372;-69
2021/10/31 08:27:02;;;;;;;39.22;21.27;;;11.10;99.90;;;;;;5116678;28;20043;-69
2021/10/31 08:29:28;;;;;;;31.40;20.00;;;11.10;99.90;;;;;;5116466;28;20048;-69
2021/10/31 08:31:55;;;;;;;33.05;21.20;;;11.20;99.90;;;;;;5116651;28;20036;-69
2021/10/31 08:34:22;;;;;;;37.25;22.95;;;11.20;99.90;;;;;;5116800;28;20036;-69
2021/10/31 08:36:48;;;;;;;31.50;21.05;;;11.20;99.90;;;;;;5116845;28;20071;-69
2021/10/31 08:39:14;;;;;;;36.53;22.15;;;11.20;99.90;;;;;;5115315;28;20081;-69
2021/10/31 08:41:40;;;;;;;28.55;20.58;;;11.20;99.90;;;;;;5116556;28;20086;-69
2021/10/31 08:44:07;;;;;;;30.88;20.90;;;11.30;99.90;;;;;;5116826;28;20404;-69
2021/10/31 08:46:33;;;;;;;30.65;20.73;;;11.30;99.90;;;;;;5116537;28;20122;-69
2021/10/31 08:49:00;;;;;;;35.25;21.65;;;11.40;99.90;;;;;;5116176;28;20050;-69
2021/10/31 08:51:26;;;;;;;29.65;20.13;;;11.40;99.90;;;;;;5116571;28;20035;-69
2021/10/31 08:53:53;;;;;;;34.85;22.17;;;11.40;99.90;;;;;;5115003;28;20384;-69
2021/10/31 08:56:20;;;;;;;32.63;21.10;;;11.40;99.90;;;;;;5116305;28;20031;-69
2021/10/31 08:58:46;;;;;;;31.38;20.42;;;11.40;99.90;;;;;;5115194;28;20044;-70
2021/10/31 09:01:12;;;;;;;29.67;20.33;;;11.40;99.90;;;;;;5116428;28;20464;-71
2021/10/31 09:03:38;;;;;;;29.65;19.95;;;11.50;99.90;;;;;;5116177;28;20035;-70
2021/10/31 09:06:05;;;;;;;33.97;21.27;;;11.50;99.90;;;;;;5116149;28;20054;-70
2021/10/31 09:08:31;;;;;;;29.60;20.23;;;11.60;99.90;;;;;;5116276;28;20035;-70
2021/10/31 09:10:56;;;;;;;34.25;20.73;;;11.60;99.90;;;;;;5115288;28;20467;-70
2021/10/31 09:13:23;;;;;;;34.10;23.52;;;11.60;99.90;;;;;;5115222;28;20059;-70
2021/10/31 09:15:51;;;;;;;35.53;22.75;;;11.70;99.90;;;;;;5114834;28;20082;-70
2021/10/31 09:18:17;;;;;;;34.63;22.02;;;11.70;99.90;;;;;;5114551;28;20118;-69
2021/10/31 09:20:43;;;;;;;38.00;24.40;;;11.80;99.90;;;;;;5115900;28;20035;-70
2021/10/31 09:23:10;;;;;;;34.22;22.98;;;11.80;99.90;;;;;;5115056;28;20139;-70
2021/10/31 09:25:36;;;;;;;34.17;23.52;;;11.90;99.90;;;;;;5115701;28;20036;-70
2021/10/31 09:28:02;;;;;;;38.90;25.73;;;11.90;99.90;;;;;;5115343;28;20071;-68
2021/10/31 09:30:31;;;;;;;44.88;27.40;;;12.00;99.90;;;;;;5114108;28;20042;-69
2021/10/31 09:32:57;;;;;;;42.78;28.83;;;12.00;99.90;;;;;;5115686;28;20035;-68
2021/10/31 09:35:25;;;;;;;31.17;23.13;;;12.00;99.90;;;;;;5115765;28;20047;-69
2021/10/31 09:37:53;;;;;;;32.10;21.70;;;11.90;99.90;;;;;;5114375;28;20047;-69
2021/10/31 09:40:20;;;;;;;28.95;20.52;;;11.90;99.90;;;;;;5115084;28;20039;-69
2021/10/31 09:42:48;;;;;;;29.10;19.35;;;12.00;99.90;;;;;;5115410;28;20123;-69
2021/10/31 09:45:14;;;;;;;32.72;20.02;;;12.00;99.90;;;;;;5115404;28;20468;-70
2021/10/31 09:47:43;;;;;;;26.88;18.75;;;12.10;99.90;;;;;;5113918;28;20049;-70
2021/10/31 09:50:09;;;;;;;27.05;18.85;;;12.10;99.90;;;;;;5114842;28;20047;-72
2021/10/31 09:52:35;;;;;;;25.88;18.67;;;12.20;99.90;;;;;;5115487;28;20031;-70
2021/10/31 09:55:04;;;;;;;29.50;17.65;;;12.20;99.90;;;;;;5115428;28;20051;-71
2021/10/31 09:57:29;;;;;;;22.40;16.02;;;12.20;99.90;;;;;;5113767;28;20040;-71
2021/10/31 09:59:57;;;;;;;21.27;15.20;;;12.30;99.90;;;;;;5113907;28;20050;-71
2021/10/31 10:02:46;;;;;;;21.67;16.25;;;12.40;99.90;;;;;;5113520;28;20411;-71
2021/10/31 10:05:27;;;;;;;24.30;15.40;;;12.40;99.90;;;;;;5115097;28;20103;-72
2021/10/31 10:08:08;;;;;;;23.05;14.55;;;12.50;99.90;;;;;;5114856;28;20053;-70
2021/10/31 10:10:47;;;;;;;21.75;14.48;;;12.50;99.90;;;;;;5113254;28;20078;-70
2021/10/31 10:13:26;;;;;;;21.23;13.90;;;12.60;99.90;;;;;;5113678;28;20112;-70
2021/10/31 10:16:11;;;;;;;17.75;12.85;;;12.60;99.90;;;;;;5114795;28;20036;-70
2021/10/31 10:18:37;;;;;;;16.90;12.13;;;12.70;99.90;;;;;;5114237;28;20047;-71
2021/10/31 10:21:30;;;;;;;16.45;11.90;;;12.70;99.90;;;;;;5113084;28;20051;-70
2021/10/31 10:24:01;;;;;;;23.17;12.90;;;12.70;99.90;;;;;;5115074;28;20118;-70
2021/10/31 10:26:36;;;;;;;19.17;12.20;;;12.70;99.90;;;;;;5113863;28;20493;-71
2021/10/31 10:29:20;;;;;;;18.35;11.77;;;12.80;99.90;;;;;;5114283;28;20044;-71
2021/10/31 10:31:48;;;;;;;19.45;10.75;;;12.90;99.90;;;;;;5113877;28;20453;-71
2021/10/31 10:34:14;;;;;;;18.63;10.93;;;12.90;99.90;;;;;;5114951;28;20035;-71
2021/10/31 10:36:45;;;;;;;17.73;12.73;;;12.90;99.90;;;;;;5113279;28;20506;-70
2021/10/31 10:39:14;;;;;;;15.52;10.93;;;12.90;99.90;;;;;;5114184;28;20036;-71
2021/10/31 10:41:41;;;;;;;16.42;11.98;;;13.00;99.90;;;;;;5114240;28;20043;-72
2021/10/31 10:44:26;;;;;;;16.13;12.10;;;13.00;99.90;;;;;;5114610;28;20118;-71
2021/10/31 10:47:17;;;;;;;17.55;11.00;;;13.10;99.90;;;;;;5113990;28;20081;-70
2021/10/31 10:49:45;;;;;;;16.10;11.35;;;13.20;99.90;;;;;;5112498;28;20047;-70
2021/10/31 10:52:34;;;;;;;14.32;10.05;;;13.20;99.90;;;;;;5114002;28;20044;-70
2021/10/31 10:55:16;;;;;;;14.63;10.32;;;13.30;99.90;;;;;;5114270;28;20577;-70
2021/10/31 10:57:51;;;;;;;16.67;9.95;;;13.30;99.90;;;;;;5113974;28;20487;-69
2021/10/31 11:00:37;;;;;;;17.15;9.63;;;13.30;99.90;;;;;;5094602;28;20059;-70
2021/10/31 11:03:08;;;;;;;16.33;10.00;;;13.30;99.90;;;;;;5112195;28;20526;-72
2021/10/31 11:05:37;;;;;;;17.67;11.23;;;13.30;99.90;;;;;;5113997;28;20046;-70
2021/10/31 11:08:10;;;;;;;16.52;10.50;;;13.30;99.90;;;;;;5113916;28;20093;-71
2021/10/31 11:10:36;;;;;;;19.23;11.23;;;13.30;99.90;;;;;;5113806;28;20357;-70
2021/10/31 11:13:05;;;;;;;15.60;11.02;;;13.40;99.90;;;;;;5113704;28;20323;-70
2021/10/31 11:15:34;;;;;;;21.70;11.20;;;13.40;99.90;;;;;;5112454;28;20479;-70
2021/10/31 11:18:03;;;;;;;12.77;9.85;;;13.40;99.90;;;;;;5113693;28;20073;-72
2021/10/31 11:20:32;;;;;;;15.18;9.98;;;13.50;99.90;;;;;;5112823;28;20102;-71
2021/10/31 11:23:04;;;;;;;15.73;9.73;;;13.60;99.90;;;;;;5113875;28;20373;-71
2021/10/31 11:25:32;;;;;;;17.98;9.75;;;13.70;99.90;;;;;;5113860;28;20077;-71
2021/10/31 11:28:01;;;;;;;14.55;10.82;;;13.70;99.90;;;;;;5112812;28;20122;-71
2021/10/31 11:30:29;;;;;;;14.15;9.77;;;13.70;99.90;;;;;;5113309;28;20035;-71
2021/10/31 11:32:55;;;;;;;14.95;10.52;;;13.70;99.90;;;;;;5112379;28;20395;-71
2021/10/31 11:35:22;;;;;;;13.98;10.07;;;13.80;99.90;;;;;;5113781;28;20040;-70
2021/10/31 11:37:55;;;;;;;17.35;9.85;;;13.80;99.90;;;;;;5115312;28;20127;-69
2021/10/31 11:40:27;;;;;;;15.75;10.65;;;13.70;99.90;;;;;;5117941;28;20028;-71
2021/10/31 11:42:53;;;;;;;12.90;9.60;;;13.80;99.90;;;;;;5117845;28;20035;-70
2021/10/31 11:45:23;;;;;;;12.10;9.07;;;13.90;99.90;;;;;;5116633;28;20493;-70
2021/10/31 11:48:13;;;;;;;14.98;9.48;;;13.90;99.90;;;;;;5117588;28;20502;-70
2021/10/31 11:50:40;;;;;;;12.88;8.10;;;13.90;99.90;;;;;;5116291;28;20035;-70
2021/10/31 11:53:15;;;;;;;12.82;8.73;;;13.90;99.90;;;;;;5116444;28;20454;-70
2021/10/31 11:55:46;;;;;;;14.52;8.80;;;13.90;99.90;;;;;;5116305;28;20071;-71
2021/10/31 11:58:23;;;;;;;10.38;7.88;;;14.00;99.90;;;;;;5117483;28;20047;-70
2021/10/31 12:00:58;;;;;;;11.45;8.02;;;14.10;99.90;;;;;;5116428;28;20078;-70
2021/10/31 12:03:32;;;;;;;12.52;7.80;;;14.00;99.90;;;;;;5116561;28;20043;-69
2021/10/31 12:06:25;;;;;;;11.00;8.13;;;14.00;99.90;;;;;;5116085;28;20091;-70
2021/10/31 12:08:56;;;;;;;14.07;7.43;;;13.90;99.90;;;;;;5116745;28;20055;-69
2021/10/31 12:11:31;;;;;;;8.90;7.60;;;14.00;99.90;;;;;;5117560;28;20040;-69
2021/10/31 12:14:02;;;;;;;9.73;6.75;;;14.00;99.90;;;;;;5116943;28;20071;-70
2021/10/31 12:16:29;;;;;;;11.05;7.57;;;14.00;99.90;;;;;;5116917;28;20031;-70
2021/10/31 12:19:10;;;;;;;9.88;7.35;;;14.00;99.90;;;;;;5115541;28;20047;-70
2021/10/31 12:21:38;;;;;;;12.13;8.05;;;14.00;99.90;;;;;;5116080;28;20052;-71
2021/10/31 12:24:07;;;;;;;12.20;7.72;;;14.00;99.90;;;;;;5116296;28;20089;-71
2021/10/31 12:26:37;;;;;;;9.13;7.15;;;14.00;99.90;;;;;;5117618;28;20052;-70
2021/10/31 12:29:23;;;;;;;10.35;7.60;;;14.00;99.90;;;;;;5116819;28;20131;-69
2021/10/31 12:32:02;;;;;;;11.88;7.63;;;14.00;99.90;;;;;;5117328;28;20042;-70
2021/10/31 12:34:39;;;;;;;11.95;7.90;;;14.00;99.90;;;;;;5099634;28;20484;-71
2021/10/31 12:37:26;;;;;;;11.25;7.53;;;13.90;99.90;;;;;;5116837;28;20123;-68